Time;durP1;ratioP1;P1;durP2;ratioP2;P2;SDS_P1;SDS_P2;PMS_P1;PMS_P2;Temp;Humidity;BMP_temperature;BMP_pressure;BME280_temperature;BME280_humidity;BME280_pressure;Samples;Min_cycle;Max_cycle;Signal;HPM_P1;HPM_P2
2022/09/24 00:01:15;;;;;;;41.20;25.20;;;14.50;81.60;;;;;;5012316;28;20053;-77
2022/09/24 00:03:44;;;;;;;41.75;26.25;;;14.50;81.60;;;;;;5012069;28;20280;-77
2022/09/24 00:06:13;;;;;;;39.20;24.75;;;14.50;81.70;;;;;;5013590;28;20076;-77
2022/09/24 00:08:41;;;;;;;38.65;26.05;;;14.50;81.90;;;;;;5014350;28;20058;-77
2022/09/24 00:11:11;;;;;;;40.95;26.45;;;14.50;81.90;;;;;;5011852;28;20125;-77
2022/09/24 00:13:39;;;;;;;41.00;26.87;;;14.50;82.00;;;;;;5012188;28;20547;-77
2022/09/24 00:16:08;;;;;;;40.08;26.20;;;14.50;82.10;;;;;;5014146;28;20274;-77
2022/09/24 00:18:36;;;;;;;39.88;26.55;;;14.50;82.20;;;;;;5012201;28;20054;-77
2022/09/24 00:21:13;;;;;;;41.30;26.15;;;14.50;82.20;;;;;;5012318;28;20081;-78
2022/09/24 00:23:40;;;;;;;41.08;26.27;;;14.50;82.20;;;;;;5013111;28;20495;-77
2022/09/24 00:28:54;;;;;;;42.05;26.83;;;14.50;82.30;;;;;;4995739;28;20747;-78
2022/09/24 00:31:21;;;;;;;44.63;26.80;;;14.50;82.20;;;;;;5013789;28;20059;-78
2022/09/24 00:33:51;;;;;;;41.17;25.45;;;14.50;82.30;;;;;;5012009;28;20096;-77
2022/09/24 00:36:20;;;;;;;41.65;26.20;;;14.50;82.20;;;;;;5012085;28;20046;-78
2022/09/24 00:38:50;;;;;;;43.03;27.13;;;14.40;82.30;;;;;;5011828;28;20066;-78
2022/09/24 00:41:18;;;;;;;39.67;26.33;;;14.40;82.40;;;;;;5012213;28;20313;-77
2022/09/24 00:43:46;;;;;;;38.95;24.67;;;14.40;82.40;;;;;;5011880;28;20145;-78
2022/09/24 00:46:18;;;;;;;40.85;26.40;;;14.40;82.40;;;;;;5012944;28;20065;-77
2022/09/24 00:48:47;;;;;;;37.03;25.27;;;14.40;82.40;;;;;;5013074;28;20098;-77
2022/09/24 00:51:17;;;;;;;39.97;26.37;;;14.40;82.50;;;;;;5013129;28;20054;-77
2022/09/24 00:53:48;;;;;;;38.80;25.38;;;14.40;82.50;;;;;;5011793;28;20281;-77
2022/09/24 00:56:16;;;;;;;42.00;27.10;;;14.40;82.60;;;;;;5011809;28;20057;-77
2022/09/24 00:58:48;;;;;;;42.22;25.92;;;14.40;82.60;;;;;;5013034;28;20125;-77
2022/09/24 01:01:16;;;;;;;42.28;26.45;;;14.40;82.70;;;;;;5012913;28;20062;-77
2022/09/24 01:03:45;;;;;;;46.27;27.50;;;14.40;82.70;;;;;;5012851;28;20520;-77
2022/09/24 01:06:13;;;;;;;41.58;27.20;;;14.40;82.80;;;;;;5010867;28;20422;-77
2022/09/24 01:08:40;;;;;;;41.10;26.77;;;14.40;82.70;;;;;;5011447;28;20052;-77
2022/09/24 01:11:20;;;;;;;40.53;26.27;;;14.40;82.80;;;;;;5010254;28;20465;-77
2022/09/24 01:14:02;;;;;;;41.80;26.83;;;14.40;82.90;;;;;;5012547;28;20054;-77
2022/09/24 01:16:37;;;;;;;40.13;25.70;;;14.40;83.00;;;;;;5012424;28;20058;-78
2022/09/24 01:19:18;;;;;;;43.17;26.40;;;14.40;82.90;;;;;;5011107;28;20333;-78
2022/09/24 01:21:49;;;;;;;41.03;26.35;;;14.40;82.90;;;;;;5012901;28;20065;-77
2022/09/24 01:24:39;;;;;;;41.88;26.60;;;14.40;82.90;;;;;;5011065;28;20057;-77
2022/09/24 01:27:14;;;;;;;41.92;26.20;;;14.40;83.00;;;;;;5012953;28;20129;-77
2022/09/24 01:30:04;;;;;;;41.13;26.63;;;14.40;82.90;;;;;;5012476;28;20057;-77
2022/09/24 01:32:36;;;;;;;42.88;27.08;;;14.40;82.90;;;;;;5008256;28;20377;-78
2022/09/24 01:35:09;;;;;;;43.75;26.90;;;14.40;83.00;;;;;;5010902;28;20130;-77
2022/09/24 01:37:39;;;;;;;42.75;26.98;;;14.40;83.00;;;;;;5012976;28;20061;-77
2022/09/24 01:40:12;;;;;;;44.08;26.98;;;14.40;83.00;;;;;;5012564;28;20126;-78
2022/09/24 01:42:42;;;;;;;42.97;26.90;;;14.40;83.00;;;;;;5011093;28;20137;-77
2022/09/24 01:45:11;;;;;;;44.33;26.25;;;14.40;83.00;;;;;;4994399;28;20333;-77
2022/09/24 01:47:40;;;;;;;43.45;27.20;;;14.40;83.00;;;;;;5010811;28;20503;-77
2022/09/24 01:50:09;;;;;;;44.95;27.13;;;14.40;83.00;;;;;;5010555;28;20050;-77
2022/09/24 01:52:42;;;;;;;41.17;25.88;;;14.40;83.00;;;;;;5012236;28;20692;-77
2022/09/24 01:55:15;;;;;;;43.27;26.80;;;14.40;83.00;;;;;;5012617;28;20121;-77
2022/09/24 01:57:46;;;;;;;41.50;25.73;;;14.40;83.00;;;;;;5010858;28;20339;-77
2022/09/24 02:00:18;;;;;;;40.58;25.90;;;14.40;83.00;;;;;;5010519;28;20405;-77
2022/09/24 02:02:49;;;;;;;43.30;27.27;;;14.40;83.10;;;;;;5010675;28;20484;-77
2022/09/24 02:05:22;;;;;;;40.63;24.63;;;14.40;83.20;;;;;;5010790;28;20609;-77
2022/09/24 02:07:58;;;;;;;42.07;26.03;;;14.40;83.20;;;;;;5010486;28;20133;-77
2022/09/24 02:10:30;;;;;;;39.33;24.77;;;14.40;83.10;;;;;;5012090;28;20282;-77
2022/09/24 02:13:03;;;;;;;39.70;25.70;;;14.30;83.10;;;;;;5012159;28;20042;-77
2022/09/24 02:15:34;;;;;;;40.15;25.02;;;14.30;83.20;;;;;;5012122;28;20510;-77
2022/09/24 02:18:05;;;;;;;41.78;25.35;;;14.30;83.20;;;;;;5012075;28;20416;-77
2022/09/24 02:20:35;;;;;;;42.83;26.53;;;14.30;83.20;;;;;;5010023;28;20082;-77
2022/09/24 02:23:04;;;;;;;40.47;25.80;;;14.30;83.30;;;;;;5011786;28;20258;-77
2022/09/24 02:25:37;;;;;;;42.88;25.65;;;14.30;83.20;;;;;;5011905;28;20085;-77
2022/09/24 02:28:04;;;;;;;42.55;25.33;;;14.30;83.40;;;;;;5012005;28;20060;-77
2022/09/24 02:30:37;;;;;;;39.90;25.27;;;14.30;83.30;;;;;;5010210;28;20058;-77
2022/09/24 02:34:19;;;;;;;40.50;24.57;;;14.30;83.40;;;;;;5010333;28;20053;-77
2022/09/24 02:35:53;;;;;;;42.80;26.05;;;14.20;83.40;;;;;;5010807;28;20281;-77
2022/09/24 02:38:20;;;;;;;42.60;25.10;;;14.20;83.30;;;;;;5010249;28;20065;-77
2022/09/24 02:40:48;;;;;;;40.88;24.20;;;14.20;83.30;;;;;;5009836;28;20050;-77
2022/09/24 02:43:15;;;;;;;40.70;24.63;;;14.20;83.40;;;;;;5009889;28;20050;-77
2022/09/24 02:45:43;;;;;;;42.27;24.67;;;14.20;83.40;;;;;;4993755;28;20050;-77
2022/09/24 02:48:10;;;;;;;40.75;25.20;;;14.20;83.50;;;;;;5011557;28;20368;-77
2022/09/24 02:50:37;;;;;;;41.65;25.27;;;14.20;83.40;;;;;;5009948;28;20054;-77
2022/09/24 02:53:04;;;;;;;38.97;24.95;;;14.20;83.50;;;;;;5009951;28;20053;-77
2022/09/24 02:55:31;;;;;;;40.15;24.85;;;14.20;83.40;;;;;;5009929;28;20056;-77
2022/09/24 02:57:58;;;;;;;39.73;24.73;;;14.20;83.50;;;;;;4993253;28;20101;-77
2022/09/24 03:00:25;;;;;;;41.35;24.73;;;14.20;83.40;;;;;;5010674;28;21115;-77
2022/09/24 03:02:54;;;;;;;42.65;25.38;;;14.20;83.50;;;;;;5009219;28;20057;-77
2022/09/24 03:05:20;;;;;;;42.83;25.23;;;14.20;83.50;;;;;;5009571;28;20046;-77
2022/09/24 03:07:49;;;;;;;42.38;24.88;;;14.20;83.50;;;;;;5009852;28;20056;-77
2022/09/24 03:10:16;;;;;;;40.20;23.87;;;14.20;83.50;;;;;;5010420;28;20062;-77
2022/09/24 03:12:43;;;;;;;40.10;24.30;;;14.20;83.50;;;;;;5009621;28;20696;-78
2022/09/24 03:15:10;;;;;;;41.83;24.65;;;14.20;83.50;;;;;;4993105;28;20133;-77
2022/09/24 03:17:37;;;;;;;40.85;24.67;;;14.20;83.50;;;;;;5009414;28;20053;-78
2022/09/24 03:20:07;;;;;;;37.55;23.58;;;14.20;83.50;;;;;;5009377;28;20057;-77
2022/09/24 03:22:34;;;;;;;43.57;25.03;;;14.20;83.60;;;;;;5010849;28;20043;-77
2022/09/24 03:25:02;;;;;;;41.03;24.33;;;14.10;83.50;;;;;;5010572;28;20361;-77
2022/09/24 03:27:28;;;;;;;43.95;24.38;;;14.20;83.50;;;;;;5010746;28;20054;-77
2022/09/24 03:32:40;;;;;;;42.92;25.67;;;14.10;83.60;;;;;;5009151;28;20050;-77
2022/09/24 03:35:09;;;;;;;43.33;25.50;;;14.10;83.60;;;;;;5009441;28;20524;-77
2022/09/24 03:37:37;;;;;;;40.80;24.38;;;14.10;83.70;;;;;;5010567;28;20791;-77
2022/09/24 03:40:05;;;;;;;42.33;24.73;;;14.10;83.60;;;;;;4992478;28;20177;-77
2022/09/24 03:42:33;;;;;;;41.78;25.88;;;14.10;83.60;;;;;;5009412;28;20517;-77
2022/09/24 03:45:00;;;;;;;39.95;24.42;;;14.20;83.60;;;;;;5010892;28;20145;-77
2022/09/24 03:47:27;;;;;;;40.13;23.67;;;14.10;83.60;;;;;;5009043;28;20054;-77
2022/09/24 03:49:54;;;;;;;41.17;23.88;;;14.10;83.70;;;;;;5010542;28;20337;-77
2022/09/24 03:52:23;;;;;;;41.80;23.63;;;14.10;83.70;;;;;;5009066;28;20049;-77
2022/09/24 03:54:50;;;;;;;42.72;24.67;;;14.10;83.70;;;;;;5009444;28;20058;-78
2022/09/24 03:57:17;;;;;;;43.65;25.73;;;14.10;83.70;;;;;;5010662;28;20060;-77
2022/09/24 03:59:46;;;;;;;43.23;25.67;;;14.10;83.70;;;;;;5008875;28;20056;-77
2022/09/24 04:02:12;;;;;;;44.38;26.17;;;14.10;83.70;;;;;;5008516;28;20730;-77
2022/09/24 04:04:39;;;;;;;45.15;25.55;;;14.10;83.70;;;;;;5008870;28;20062;-77
2022/09/24 04:07:06;;;;;;;44.67;25.73;;;14.10;83.80;;;;;;5009238;28;20634;-77
2022/09/24 04:09:35;;;;;;;43.25;25.48;;;14.10;83.80;;;;;;5008795;28;20133;-77
2022/09/24 04:12:02;;;;;;;40.47;24.97;;;14.10;83.80;;;;;;5008798;28;20050;-77
2022/09/24 04:14:29;;;;;;;43.47;25.02;;;14.10;83.70;;;;;;5008986;28;20768;-77
2022/09/24 04:16:56;;;;;;;41.83;24.50;;;14.10;83.80;;;;;;5008788;28;20734;-77
2022/09/24 04:19:23;;;;;;;42.65;25.52;;;14.10;83.80;;;;;;5008784;28;20054;-77
2022/09/24 04:21:50;;;;;;;43.95;25.13;;;14.10;83.70;;;;;;5008822;28;20065;-77
2022/09/24 04:24:17;;;;;;;42.07;23.77;;;14.10;83.80;;;;;;5010036;28;20054;-77
2022/09/24 04:26:45;;;;;;;41.78;24.80;;;14.10;83.90;;;;;;5008913;28;20254;-77
2022/09/24 04:29:13;;;;;;;40.47;23.42;;;14.10;83.90;;;;;;5008377;28;20133;-77
2022/09/24 04:31:40;;;;;;;42.42;24.77;;;14.10;83.90;;;;;;5008374;28;20061;-77
2022/09/24 04:34:07;;;;;;;44.13;25.05;;;14.10;83.90;;;;;;5008685;28;20501;-77
2022/09/24 04:36:33;;;;;;;43.97;24.73;;;14.10;84.00;;;;;;5008502;28;20091;-78
2022/09/24 04:39:02;;;;;;;42.58;24.92;;;14.00;83.90;;;;;;5008256;28;20277;-77
2022/09/24 04:41:29;;;;;;;42.17;24.80;;;14.00;84.00;;;;;;5010511;28;20516;-77
2022/09/24 04:43:58;;;;;;;40.05;24.25;;;14.00;84.00;;;;;;5011771;28;20439;-77
2022/09/24 04:46:25;;;;;;;41.85;24.48;;;14.00;84.00;;;;;;5011665;28;20053;-77
2022/09/24 04:48:52;;;;;;;39.80;23.87;;;14.00;84.00;;;;;;5011782;28;20137;-77
2022/09/24 04:51:20;;;;;;;38.75;24.23;;;14.00;84.00;;;;;;4995324;28;20564;-77
2022/09/24 04:53:49;;;;;;;41.90;23.50;;;14.00;84.00;;;;;;4995166;28;20046;-77
2022/09/24 04:56:16;;;;;;;41.13;25.15;;;14.00;84.10;;;;;;5013329;28;20587;-77
2022/09/24 04:58:43;;;;;;;40.35;25.00;;;14.00;84.00;;;;;;5011887;28;20979;-77
2022/09/24 05:01:12;;;;;;;43.53;25.13;;;14.00;84.10;;;;;;5011432;28;20140;-77
2022/09/24 05:03:39;;;;;;;45.08;24.70;;;14.00;84.10;;;;;;5011394;28;20286;-77
2022/09/24 05:06:06;;;;;;;41.08;24.65;;;14.00;84.10;;;;;;5011511;28;20050;-78
2022/09/24 05:08:33;;;;;;;41.42;24.73;;;14.00;84.10;;;;;;5011744;28;20134;-77
2022/09/24 05:11:01;;;;;;;42.63;24.83;;;14.00;84.10;;;;;;5012285;28;20073;-77
2022/09/24 05:13:28;;;;;;;43.77;25.20;;;14.00;84.10;;;;;;5012688;28;20535;-77
2022/09/24 05:15:55;;;;;;;41.50;24.67;;;14.00;84.10;;;;;;5011014;28;20254;-77
2022/09/24 05:18:23;;;;;;;41.97;24.67;;;14.00;84.20;;;;;;5011527;28;20069;-77
2022/09/24 05:20:50;;;;;;;42.10;24.88;;;14.00;84.20;;;;;;5010685;28;20666;-77
2022/09/24 05:23:17;;;;;;;40.97;25.33;;;14.00;84.20;;;;;;5012725;28;20043;-77
2022/09/24 05:28:30;;;;;;;45.75;25.67;;;14.00;84.20;;;;;;5012445;28;20636;-77
2022/09/24 05:30:57;;;;;;;47.03;26.98;;;14.10;84.20;;;;;;5012282;28;20050;-77
2022/09/24 05:33:25;;;;;;;41.63;24.52;;;14.10;84.20;;;;;;5010831;28;20061;-77
2022/09/24 05:35:53;;;;;;;42.30;25.25;;;14.10;84.30;;;;;;5010819;28;20057;-77
2022/09/24 05:38:20;;;;;;;44.70;26.17;;;14.10;84.30;;;;;;5010511;28;20097;-77
2022/09/24 05:40:47;;;;;;;45.42;25.67;;;14.10;84.30;;;;;;5010466;28;20258;-77
2022/09/24 05:43:15;;;;;;;43.53;25.48;;;14.10;84.30;;;;;;5010588;28;20058;-77
2022/09/24 05:45:44;;;;;;;42.65;25.55;;;14.10;84.30;;;;;;4994284;28;20671;-77
2022/09/24 05:48:11;;;;;;;42.17;25.00;;;14.10;84.40;;;;;;5010659;28;20531;-77
2022/09/24 05:50:39;;;;;;;41.53;24.63;;;14.10;84.40;;;;;;4993659;28;20046;-77
2022/09/24 05:53:06;;;;;;;39.08;23.55;;;14.10;84.60;;;;;;5009904;28;20310;-77
2022/09/24 05:55:33;;;;;;;44.05;25.73;;;14.00;84.60;;;;;;4994333;28;20062;-77
2022/09/24 05:58:05;;;;;;;41.22;24.15;;;14.00;84.70;;;;;;5012410;28;20087;-77
2022/09/24 06:00:32;;;;;;;44.40;26.08;;;14.00;84.70;;;;;;5010215;28;20129;-77
2022/09/24 06:03:06;;;;;;;45.57;27.27;;;14.00;84.70;;;;;;5011943;28;20046;-77
2022/09/24 06:05:34;;;;;;;41.17;25.27;;;14.00;84.80;;;;;;4993915;28;20823;-77
2022/09/24 06:08:03;;;;;;;40.50;23.95;;;14.00;84.80;;;;;;5011847;28;20138;-77
2022/09/24 06:10:30;;;;;;;39.70;24.30;;;14.00;85.00;;;;;;5009628;28;20053;-77
2022/09/24 06:12:57;;;;;;;41.10;23.55;;;14.00;85.00;;;;;;5010183;28;20064;-76
2022/09/24 06:15:26;;;;;;;38.87;23.00;;;14.00;85.30;;;;;;5010229;28;20508;-76
2022/09/24 06:17:53;;;;;;;41.60;24.33;;;13.90;85.50;;;;;;5008619;28;20338;-76
2022/09/24 06:20:20;;;;;;;40.33;23.75;;;13.90;85.30;;;;;;5007745;28;20049;-77
2022/09/24 06:22:47;;;;;;;36.08;21.55;;;13.90;85.10;;;;;;5009865;28;20064;-76
2022/09/24 06:25:16;;;;;;;30.83;18.48;;;13.90;85.20;;;;;;4991265;28;20050;-77
2022/09/24 06:27:43;;;;;;;30.73;18.50;;;13.90;85.10;;;;;;5008837;28;20654;-77
2022/09/24 06:30:11;;;;;;;30.25;18.27;;;13.90;85.40;;;;;;5006385;28;20266;-76
2022/09/24 06:32:38;;;;;;;28.33;18.17;;;14.00;85.30;;;;;;5007510;28;20089;-76
2022/09/24 06:35:06;;;;;;;24.05;14.45;;;14.00;85.10;;;;;;5008723;28;20053;-76
2022/09/24 06:37:32;;;;;;;22.27;14.20;;;14.00;85.10;;;;;;5011061;28;20056;-77
2022/09/24 06:40:00;;;;;;;24.00;15.00;;;14.00;85.30;;;;;;5010789;28;20442;-77
2022/09/24 06:42:29;;;;;;;25.40;16.02;;;14.00;85.10;;;;;;5010131;28;20750;-77
2022/09/24 06:44:56;;;;;;;23.02;14.00;;;14.00;85.00;;;;;;5010765;28;20058;-77
2022/09/24 06:47:23;;;;;;;18.70;11.88;;;14.00;85.10;;;;;;5010464;28;20056;-77
2022/09/24 06:49:50;;;;;;;17.52;10.90;;;14.00;85.10;;;;;;5008443;28;20046;-77
2022/09/24 06:52:17;;;;;;;19.00;11.97;;;14.00;85.10;;;;;;5010742;28;20054;-76
2022/09/24 06:54:44;;;;;;;16.88;10.82;;;14.00;84.90;;;;;;5009146;28;21333;-77
2022/09/24 06:57:11;;;;;;;16.90;10.75;;;14.00;84.90;;;;;;5008249;28;20061;-77
2022/09/24 06:59:40;;;;;;;17.70;11.02;;;14.00;85.00;;;;;;5007461;28;20051;-77
2022/09/24 07:02:08;;;;;;;17.05;10.50;;;14.00;84.80;;;;;;5009501;28;20133;-77
2022/09/24 07:04:35;;;;;;;17.23;10.37;;;14.00;85.00;;;;;;5009583;28;20050;-77
2022/09/24 07:09:49;;;;;;;16.20;9.75;;;14.00;85.20;;;;;;5007973;28;20403;-77
2022/09/24 07:12:16;;;;;;;15.00;9.50;;;14.10;85.20;;;;;;5008264;28;20054;-77
2022/09/24 07:14:44;;;;;;;14.73;9.25;;;14.10;85.20;;;;;;5007903;28;20050;-77
2022/09/24 07:17:11;;;;;;;14.97;9.20;;;14.10;85.20;;;;;;5005562;28;20054;-77
2022/09/24 07:19:38;;;;;;;14.60;8.88;;;14.10;85.20;;;;;;5009075;28;20827;-77
2022/09/24 07:22:05;;;;;;;14.25;8.82;;;14.10;85.10;;;;;;4991126;28;20051;-77
2022/09/24 07:24:32;;;;;;;15.50;9.38;;;14.20;85.20;;;;;;5008665;28;20054;-76
2022/09/24 07:26:59;;;;;;;15.65;9.18;;;14.10;85.10;;;;;;5009157;28;20058;-76
2022/09/24 07:29:25;;;;;;;15.80;9.47;;;14.20;85.20;;;;;;5006885;28;20325;-76
2022/09/24 07:31:54;;;;;;;15.98;9.80;;;14.20;85.40;;;;;;5007966;28;20312;-76
2022/09/24 07:34:21;;;;;;;15.88;10.15;;;14.20;85.50;;;;;;5008234;28;20050;-77
2022/09/24 07:36:48;;;;;;;17.05;10.00;;;14.20;85.40;;;;;;5010093;28;20136;-75
2022/09/24 07:39:15;;;;;;;15.77;9.63;;;14.20;85.40;;;;;;5007046;28;20055;-76
2022/09/24 07:41:42;;;;;;;15.53;9.23;;;14.20;85.60;;;;;;5007702;28;20142;-76
2022/09/24 07:44:09;;;;;;;16.17;9.27;;;14.20;85.60;;;;;;5008221;28;20250;-76
2022/09/24 07:46:36;;;;;;;15.95;9.23;;;14.20;85.50;;;;;;5007838;28;20559;-76
2022/09/24 07:49:05;;;;;;;15.48;9.20;;;14.30;85.70;;;;;;5010117;28;20050;-76
2022/09/24 07:51:32;;;;;;;16.02;9.30;;;14.30;85.60;;;;;;5009406;28;20065;-76
2022/09/24 07:53:59;;;;;;;13.10;8.20;;;14.30;85.70;;;;;;5007939;28;20061;-77
2022/09/24 07:56:26;;;;;;;17.00;8.95;;;14.30;85.70;;;;;;5006924;28;20251;-77
2022/09/24 07:58:54;;;;;;;13.13;7.07;;;14.30;85.70;;;;;;5008210;28;21043;-76
2022/09/24 08:01:21;;;;;;;15.40;7.35;;;14.30;85.80;;;;;;5008387;28;20492;-75
2022/09/24 08:03:49;;;;;;;13.68;7.35;;;14.30;85.60;;;;;;5006202;28;20082;-75
2022/09/24 08:06:18;;;;;;;13.03;6.37;;;14.40;85.60;;;;;;5006270;28;20105;-76
2022/09/24 08:08:45;;;;;;;13.05;5.78;;;14.40;85.60;;;;;;5008345;28;20254;-76
2022/09/24 08:11:12;;;;;;;12.85;6.32;;;14.40;85.50;;;;;;5008398;28;20046;-76
2022/09/24 08:13:39;;;;;;;13.75;4.85;;;14.40;85.50;;;;;;5006905;28;20105;-75
2022/09/24 08:16:07;;;;;;;12.35;4.57;;;14.40;85.10;;;;;;5010429;28;20513;-75
2022/09/24 08:18:34;;;;;;;11.60;4.10;;;14.40;85.10;;;;;;5013288;28;20080;-75
2022/09/24 08:21:04;;;;;;;14.23;4.57;;;14.40;85.10;;;;;;5011521;28;20286;-76
2022/09/24 08:23:34;;;;;;;14.80;4.72;;;14.50;85.20;;;;;;5011367;28;20153;-75
2022/09/24 08:26:01;;;;;;;12.10;4.28;;;14.50;85.20;;;;;;5011692;28;20572;-75
2022/09/24 08:28:28;;;;;;;10.93;4.43;;;14.50;85.30;;;;;;5009328;28;20109;-76
2022/09/24 08:30:59;;;;;;;13.43;3.43;;;14.50;85.20;;;;;;5011395;28;20046;-75
2022/09/24 08:33:26;;;;;;;11.23;2.97;;;14.50;85.20;;;;;;5011644;28;20269;-76
2022/09/24 08:35:53;;;;;;;9.90;2.20;;;14.60;84.70;;;;;;5011325;28;20057;-76
2022/09/24 08:38:20;;;;;;;10.25;1.80;;;14.60;85.10;;;;;;5011140;28;20062;-75
2022/09/24 08:40:57;;;;;;;9.63;1.40;;;14.60;85.30;;;;;;5008781;28;20054;-76
2022/09/24 08:43:36;;;;;;;8.60;1.43;;;14.60;85.40;;;;;;5010917;28;20051;-75
2022/09/24 08:49:02;;;;;;;7.88;1.10;;;14.70;85.00;;;;;;5009555;28;20089;-76
2022/09/24 08:51:35;;;;;;;9.90;1.40;;;14.70;85.00;;;;;;5011610;28;20058;-74
2022/09/24 08:54:08;;;;;;;8.15;1.17;;;14.80;85.00;;;;;;5008259;28;20076;-78
2022/09/24 08:56:42;;;;;;;5.10;0.80;;;14.80;84.70;;;;;;5012154;28;21035;-79
2022/09/24 08:59:22;;;;;;;5.88;0.82;;;14.80;84.80;;;;;;5013060;28;20305;-78
2022/09/24 09:01:58;;;;;;;6.32;0.90;;;14.80;84.30;;;;;;5012137;28;20058;-76
2022/09/24 09:04:30;;;;;;;5.20;1.00;;;14.80;84.30;;;;;;5010949;28;20073;-74
2022/09/24 09:07:12;;;;;;;5.90;0.98;;;14.90;84.40;;;;;;5009356;28;20528;-80
2022/09/24 09:09:44;;;;;;;6.07;0.60;;;14.90;84.50;;;;;;5010903;28;20051;-76
2022/09/24 09:12:17;;;;;;;6.57;1.10;;;14.90;84.40;;;;;;5010239;28;20365;-79
2022/09/24 09:14:50;;;;;;;5.45;0.75;;;14.90;84.20;;;;;;5010735;28;20145;-75
2022/09/24 09:17:40;;;;;;;4.65;0.60;;;15.00;84.20;;;;;;4994582;28;20133;-76
2022/09/24 09:20:14;;;;;;;6.85;1.10;;;15.00;83.70;;;;;;5009192;28;20476;-75
2022/09/24 09:22:45;;;;;;;3.73;0.70;;;15.00;83.70;;;;;;5010385;28;20060;-74
2022/09/24 09:25:22;;;;;;;4.35;0.80;;;15.00;83.60;;;;;;5010268;28;20308;-76
2022/09/24 09:27:59;;;;;;;5.57;0.80;;;15.00;83.60;;;;;;5009837;28;20050;-74
2022/09/24 09:30:30;;;;;;;4.72;0.70;;;15.00;83.60;;;;;;5009586;28;20058;-71
2022/09/24 09:33:20;;;;;;;9.18;1.25;;;15.00;83.60;;;;;;5010028;28;20126;-76
2022/09/24 09:35:51;;;;;;;4.53;0.90;;;15.00;83.60;;;;;;5011380;28;20078;-75
2022/09/24 09:38:25;;;;;;;5.00;0.80;;;15.00;83.50;;;;;;5008864;28;20261;-75
2022/09/24 09:41:00;;;;;;;5.72;0.93;;;15.10;83.30;;;;;;5010661;28;20085;-76
2022/09/24 09:43:29;;;;;;;7.38;0.70;;;15.10;83.30;;;;;;5010742;28;20058;-76
2022/09/24 09:46:10;;;;;;;8.63;1.15;;;15.20;82.90;;;;;;5010585;28;20604;-73
2022/09/24 09:48:45;;;;;;;8.47;1.13;;;15.20;83.00;;;;;;5011748;28;20081;-75
2022/09/24 09:51:19;;;;;;;6.20;1.40;;;15.20;82.80;;;;;;5009964;28;20262;-75
2022/09/24 09:53:55;;;;;;;7.18;1.05;;;15.20;82.80;;;;;;5011666;28;20058;-75
2022/09/24 09:56:25;;;;;;;7.82;1.02;;;15.20;82.80;;;;;;4994496;28;20058;-75
2022/09/24 09:59:02;;;;;;;7.18;1.17;;;15.20;83.20;;;;;;5011273;28;20084;-76
2022/09/24 10:01:32;;;;;;;8.20;1.10;;;15.30;82.60;;;;;;5012323;28;20125;-76
2022/09/24 10:04:03;;;;;;;10.38;1.52;;;15.30;82.60;;;;;;5011116;28;20280;-74
2022/09/24 10:06:32;;;;;;;8.93;1.23;;;15.30;82.40;;;;;;5009637;28;20050;-73
2022/09/24 10:09:13;;;;;;;7.30;0.80;;;15.40;82.60;;;;;;5011621;28;20054;-75
2022/09/24 10:11:41;;;;;;;10.20;1.20;;;15.40;82.60;;;;;;5011509;28;20882;-73
2022/09/24 10:14:12;;;;;;;8.60;1.20;;;15.40;82.70;;;;;;5010450;28;20531;-76
2022/09/24 10:16:41;;;;;;;6.82;1.00;;;15.40;82.90;;;;;;5009369;28;20384;-75
2022/09/24 10:19:21;;;;;;;10.30;1.48;;;15.50;82.90;;;;;;5008914;28;20050;-76
2022/09/24 10:21:49;;;;;;;8.75;1.17;;;15.50;82.80;;;;;;5008793;28;20524;-74
2022/09/24 10:24:20;;;;;;;10.65;1.85;;;15.50;82.60;;;;;;5008875;28;20057;-74
2022/09/24 10:26:48;;;;;;;8.80;1.30;;;15.50;82.30;;;;;;5010776;28;20050;-73
2022/09/24 10:32:05;;;;;;;9.07;1.30;;;15.50;81.90;;;;;;5010779;28;20035;-75
2022/09/24 10:34:32;;;;;;;9.15;1.33;;;15.50;81.90;;;;;;5012018;28;20083;-75
2022/09/24 10:37:01;;;;;;;6.10;1.13;;;15.60;81.90;;;;;;5010548;28;20046;-73
2022/09/24 10:39:29;;;;;;;6.70;1.30;;;15.50;81.90;;;;;;5011308;28;20415;-74
2022/09/24 10:41:57;;;;;;;7.20;1.02;;;15.60;81.80;;;;;;5011081;28;20274;-73
2022/09/24 10:44:35;;;;;;;6.10;1.05;;;15.60;81.90;;;;;;5010499;28;20053;-73
2022/09/24 10:47:26;;;;;;;8.02;1.30;;;15.60;81.90;;;;;;5011648;28;20058;-74
2022/09/24 10:50:07;;;;;;;8.93;0.93;;;15.60;81.90;;;;;;4990616;28;20058;-73
2022/09/24 10:52:45;;;;;;;7.33;0.90;;;15.50;82.00;;;;;;4990918;28;20051;-75
2022/09/24 10:55:36;;;;;;;4.47;0.68;;;15.60;81.60;;;;;;4990607;28;20353;-76
2022/09/24 10:58:11;;;;;;;5.57;0.70;;;15.50;81.50;;;;;;5001006;28;20468;-74
2022/09/24 11:00:47;;;;;;;3.13;0.60;;;15.50;81.30;;;;;;5009420;28;20471;-74
2022/09/24 11:03:43;;;;;;;4.20;0.70;;;15.50;81.30;;;;;;5009207;28;20058;-75
2022/09/24 11:06:19;;;;;;;5.37;0.87;;;15.50;81.10;;;;;;5011042;28;20058;-73
2022/09/24 11:09:07;;;;;;;3.22;0.35;;;15.50;81.20;;;;;;5010912;28;20302;-74
2022/09/24 11:11:47;;;;;;;4.82;0.50;;;15.50;81.00;;;;;;5004028;28;20050;-73
2022/09/24 11:14:31;;;;;;;3.60;0.40;;;15.50;80.90;;;;;;5009168;28;20094;-74
2022/09/24 11:17:23;;;;;;;3.45;0.60;;;15.60;81.00;;;;;;5008241;28;20058;-74
2022/09/24 11:20:15;;;;;;;2.27;0.30;;;15.60;80.90;;;;;;5000042;28;20924;-76
2022/09/24 11:23:09;;;;;;;4.32;0.57;;;15.60;80.80;;;;;;5009836;28;20255;-78
2022/09/24 11:25:46;;;;;;;3.40;0.50;;;15.60;80.70;;;;;;5001754;28;20804;-77
2022/09/24 11:28:28;;;;;;;2.25;0.40;;;15.60;80.60;;;;;;5007963;28;20121;-76
2022/09/24 11:31:02;;;;;;;3.92;0.57;;;15.60;80.50;;;;;;5007010;28;20055;-75
2022/09/24 11:33:41;;;;;;;4.10;0.43;;;15.60;80.60;;;;;;5008503;28;20687;-77
2022/09/24 11:36:21;;;;;;;2.40;0.45;;;15.60;80.60;;;;;;5007954;28;21798;-76
2022/09/24 11:39:02;;;;;;;4.10;0.50;;;15.60;80.50;;;;;;5005350;28;20074;-75
2022/09/24 11:41:39;;;;;;;2.85;0.47;;;15.60;80.40;;;;;;5008744;28;20054;-74
2022/09/24 11:44:30;;;;;;;2.85;0.50;;;15.60;80.50;;;;;;5009268;28;20143;-74
2022/09/24 11:47:10;;;;;;;2.70;0.37;;;15.60;80.40;;;;;;5005619;28;20116;-78
2022/09/24 11:49:56;;;;;;;3.17;0.65;;;15.60;80.50;;;;;;5008624;28;20839;-78
2022/09/24 11:52:33;;;;;;;3.70;0.50;;;15.60;80.20;;;;;;5012026;28;20053;-74
2022/09/24 11:55:05;;;;;;;4.55;0.70;;;15.70;80.20;;;;;;5012409;28;20054;-80
2022/09/24 11:57:37;;;;;;;3.47;0.45;;;15.70;80.30;;;;;;5013843;28;20086;-78
2022/09/24 12:00:07;;;;;;;5.37;0.80;;;15.70;80.10;;;;;;5011760;28;20082;-77
2022/09/24 12:02:39;;;;;;;2.38;0.45;;;15.80;80.00;;;;;;5013924;28;20309;-80
2022/09/24 12:05:14;;;;;;;3.20;0.40;;;15.80;80.00;;;;;;5014196;28;20078;-73
2022/09/24 12:07:49;;;;;;;4.75;0.70;;;15.80;79.80;;;;;;5010938;28;20808;-73
2022/09/24 12:10:28;;;;;;;4.63;0.57;;;15.80;79.70;;;;;;4995457;28;20157;-75
2022/09/24 12:13:03;;;;;;;4.37;0.60;;;15.80;79.50;;;;;;5012189;28;21007;-75
2022/09/24 12:15:39;;;;;;;4.38;0.60;;;15.80;79.30;;;;;;5010024;28;20376;-75
2022/09/24 12:18:11;;;;;;;4.10;0.50;;;15.80;79.10;;;;;;5011354;28;20123;-75
2022/09/24 12:20:47;;;;;;;2.80;0.52;;;15.80;79.00;;;;;;5010748;28;20476;-75
2022/09/24 12:23:18;;;;;;;2.90;0.40;;;15.80;79.00;;;;;;4995103;28;20067;-75
2022/09/24 12:25:50;;;;;;;4.97;0.70;;;15.80;78.30;;;;;;5011273;28;20206;-76
2022/09/24 12:33:53;;;;;;;3.67;0.65;;;15.80;78.50;;;;;;5004747;28;20054;-74
2022/09/24 12:36:31;;;;;;;3.42;0.60;;;15.80;78.10;;;;;;5012103;28;20137;-73
2022/09/24 12:39:04;;;;;;;4.17;0.50;;;15.80;78.20;;;;;;5010167;28;20051;-74
2022/09/24 12:41:32;;;;;;;4.95;0.50;;;15.80;78.10;;;;;;5008380;28;20425;-73
2022/09/24 12:44:06;;;;;;;3.63;0.60;;;15.80;78.20;;;;;;5009581;28;20057;-74
2022/09/24 12:46:39;;;;;;;2.63;0.32;;;15.80;78.20;;;;;;5012430;28;20481;-75
2022/09/24 12:49:19;;;;;;;3.58;0.50;;;15.80;78.40;;;;;;5012075;28;20061;-75
2022/09/24 12:51:47;;;;;;;4.07;0.40;;;15.80;78.60;;;;;;5011042;28;20057;-74
2022/09/24 12:54:26;;;;;;;4.28;0.50;;;15.80;78.50;;;;;;5011603;28;20257;-73
2022/09/24 12:57:05;;;;;;;3.67;0.52;;;15.80;78.50;;;;;;5008084;28;20125;-75
2022/09/24 12:59:32;;;;;;;6.60;0.60;;;15.80;78.60;;;;;;5007243;28;21033;-72
2022/09/24 13:02:14;;;;;;;4.18;0.65;;;15.80;78.20;;;;;;5009662;28;20050;-74
2022/09/24 13:04:47;;;;;;;4.30;0.50;;;15.90;78.60;;;;;;5009730;28;20062;-75
2022/09/24 13:07:30;;;;;;;3.10;0.50;;;15.90;78.70;;;;;;5010668;28;20269;-75
2022/09/24 13:09:57;;;;;;;4.78;0.68;;;15.90;78.70;;;;;;5008103;28;20046;-75
2022/09/24 13:12:31;;;;;;;3.65;0.70;;;15.90;78.90;;;;;;5009876;28;20136;-74
2022/09/24 13:15:01;;;;;;;4.55;0.75;;;15.90;79.10;;;;;;5009961;28;20129;-74
2022/09/24 13:17:29;;;;;;;3.53;0.87;;;15.90;79.00;;;;;;5011057;28;20054;-74